createdAt,value
2023-01-10T00:01:07.629Z,5.94
2023-01-10T00:03:35.616Z,5.95
2023-01-10T00:06:04.609Z,5.97
2023-01-10T00:08:32.360Z,5.95
2023-01-10T00:11:20.175Z,5.98
2023-01-10T00:13:46.950Z,5.97
2023-01-10T00:16:14.760Z,5.95
2023-01-10T00:18:42.567Z,5.99
2023-01-10T00:21:14.270Z,5.94
2023-01-10T00:23:42.614Z,5.93
2023-01-10T00:26:10.417Z,5.95
2023-01-10T00:28:39.237Z,6.08
2023-01-10T00:31:08.335Z,5.97
2023-01-10T00:33:36.552Z,5.98
2023-01-10T00:36:06.138Z,5.98
2023-01-10T00:38:36.941Z,5.91
2023-01-10T00:41:25.100Z,5.84
2023-01-10T00:43:58.085Z,5.64
2023-01-10T00:46:26.277Z,5.54
2023-01-10T00:48:54.830Z,5.51
2023-01-10T00:51:22.520Z,5.60
2023-01-10T00:53:51.663Z,5.50
2023-01-10T00:56:19.439Z,5.41
2023-01-10T00:58:47.093Z,5.29
2023-01-10T01:01:14.983Z,5.35
2023-01-10T01:03:42.902Z,5.27
2023-01-10T01:06:10.703Z,5.18
2023-01-10T01:08:38.507Z,5.20
2023-01-10T01:11:07.753Z,5.17
2023-01-10T01:13:36.339Z,5.12
2023-01-10T01:16:04.301Z,5.04
2023-01-10T01:18:32.243Z,4.98
2023-01-10T01:21:03.480Z,4.89
2023-01-10T01:23:31.872Z,4.95
2023-01-10T01:25:59.969Z,5.04
2023-01-10T01:28:29.060Z,5.18
2023-01-10T01:30:56.785Z,5.19
2023-01-10T01:33:25.229Z,5.21
2023-01-10T01:35:52.902Z,5.27
2023-01-10T01:38:20.779Z,5.29
2023-01-10T01:40:48.542Z,5.20
2023-01-10T01:43:26.260Z,5.12
2023-01-10T01:45:56.158Z,5.14
2023-01-10T01:48:36.691Z,5.01
2023-01-10T01:51:10.771Z,5.15
2023-01-10T01:53:46.991Z,5.15
2023-01-10T01:56:18.566Z,5.13
2023-01-10T01:58:51.839Z,5.35
2023-01-10T02:01:23.072Z,5.36
2023-01-10T02:03:57.075Z,5.37
2023-01-10T02:06:26.799Z,5.42
2023-01-10T02:09:01.929Z,5.54
2023-01-10T02:11:31.099Z,5.53
2023-01-10T02:14:00.218Z,5.48
2023-01-10T02:16:29.322Z,5.52
2023-01-10T02:18:56.995Z,5.47
2023-01-10T02:22:04.591Z,5.49
2023-01-10T02:25:07.273Z,5.42
2023-01-10T02:27:45.152Z,5.39
2023-01-10T02:31:01.857Z,5.44
2023-01-10T02:33:35.172Z,5.37
2023-01-10T02:36:21.819Z,5.30
2023-01-10T02:38:59.596Z,5.33
2023-01-10T02:41:36.504Z,5.24
2023-01-10T02:44:08.497Z,5.27
2023-01-10T02:46:39.825Z,5.27
2023-01-10T02:49:08.971Z,5.29
2023-01-10T02:51:36.646Z,5.26
2023-01-10T02:54:09.072Z,5.26
2023-01-10T02:56:56.545Z,5.18
2023-01-10T02:59:55.653Z,5.04
2023-01-10T03:02:34.649Z,4.96
2023-01-10T03:05:12.127Z,4.84
2023-01-10T03:07:47.557Z,4.87
2023-01-10T03:10:20.269Z,4.89
2023-01-10T03:12:57.009Z,4.92
2023-01-10T03:15:28.736Z,5.09
2023-01-10T03:18:01.413Z,4.98
2023-01-10T03:20:35.837Z,4.98
2023-01-10T03:23:06.861Z,4.99
2023-01-10T03:25:37.838Z,4.94
2023-01-10T03:28:10.095Z,4.93
2023-01-10T03:30:45.779Z,4.96
2023-01-10T03:33:17.419Z,5.02
2023-01-10T03:35:57.480Z,5.17
2023-01-10T03:38:32.680Z,5.22
2023-01-10T03:41:05.979Z,5.26
2023-01-10T03:43:59.134Z,5.29
2023-01-10T03:46:31.830Z,5.38
2023-01-10T03:49:01.234Z,5.31
2023-01-10T03:51:30.925Z,5.28
2023-01-10T03:54:00.958Z,5.30
2023-01-10T03:56:29.011Z,5.28
2023-01-10T03:58:57.049Z,5.21
2023-01-10T04:01:24.790Z,5.16
2023-01-10T04:03:52.653Z,5.19
2023-01-10T04:06:20.363Z,5.13
2023-01-10T04:08:49.459Z,5.03
2023-01-10T04:11:17.145Z,4.98
2023-01-10T04:13:44.905Z,4.99
2023-01-10T04:16:12.558Z,4.99
2023-01-10T04:18:40.287Z,4.96
2023-01-10T04:21:08.140Z,4.90
2023-01-10T04:23:35.814Z,4.96
2023-01-10T04:26:05.105Z,5.06
2023-01-10T04:28:32.827Z,5.03
2023-01-10T04:31:00.655Z,5.03
2023-01-10T04:33:28.841Z,4.99
2023-01-10T04:35:56.771Z,4.99
2023-01-10T04:38:24.581Z,4.98
2023-01-10T04:40:56.520Z,4.95
2023-01-10T04:43:26.281Z,4.85
2023-01-10T04:45:54.300Z,4.70
2023-01-10T04:48:22.222Z,4.64
2023-01-10T04:50:51.796Z,4.54
2023-01-10T04:53:20.170Z,4.46
2023-01-10T04:55:48.464Z,4.43
2023-01-10T04:58:16.357Z,4.39
2023-01-10T05:00:45.496Z,4.37
2023-01-10T05:03:13.388Z,4.34
2023-01-10T05:05:41.145Z,4.41
2023-01-10T05:08:08.869Z,4.47
2023-01-10T05:10:36.631Z,4.61
2023-01-10T05:13:04.343Z,4.73
2023-01-10T05:15:32.053Z,4.72
2023-01-10T05:18:01.697Z,4.83
2023-01-10T05:20:29.449Z,4.85
2023-01-10T05:22:57.280Z,4.92
2023-01-10T05:25:25.054Z,4.98
2023-01-10T05:27:52.753Z,5.02
2023-01-10T05:30:20.750Z,5.01
2023-01-10T05:32:48.693Z,4.98
2023-01-10T05:35:18.291Z,5.01
2023-01-10T05:37:46.078Z,5.06
2023-01-10T05:40:13.953Z,5.06
2023-01-10T05:42:42.291Z,5.16
2023-01-10T05:45:10.928Z,5.17
2023-01-10T05:47:38.877Z,5.13
2023-01-10T05:50:07.247Z,5.21
2023-01-10T05:52:36.506Z,5.25
2023-01-10T05:55:04.607Z,5.18
2023-01-10T05:57:32.442Z,5.20
2023-01-10T06:00:00.131Z,5.25
2023-01-10T06:02:28.020Z,5.36
2023-01-10T06:04:56.316Z,5.31
2023-01-10T06:07:24.387Z,5.36
2023-01-10T06:09:53.487Z,5.36
2023-01-10T06:12:21.279Z,5.36
2023-01-10T06:14:49.002Z,5.34
2023-01-10T06:17:16.852Z,5.34
2023-01-10T06:19:44.508Z,5.37
2023-01-10T06:22:12.254Z,5.38
2023-01-10T06:24:40.075Z,5.39
2023-01-10T06:27:09.336Z,5.40
2023-01-10T06:29:37.121Z,5.41
2023-01-10T06:32:05.026Z,5.47
2023-01-10T06:34:32.825Z,5.57
2023-01-10T06:37:00.619Z,5.51
2023-01-10T06:39:28.284Z,5.40
2023-01-10T06:41:56.030Z,5.45
2023-01-10T06:44:25.250Z,5.42
2023-01-10T06:46:53.047Z,5.37
2023-01-10T06:49:20.898Z,5.50
2023-01-10T06:51:48.716Z,5.57
2023-01-10T06:54:17.335Z,5.59
2023-01-10T06:56:45.115Z,5.60
2023-01-10T06:59:12.943Z,5.52
2023-01-10T07:01:42.069Z,5.43
2023-01-10T07:04:09.990Z,5.23
2023-01-10T07:06:38.493Z,5.04
2023-01-10T07:09:07.178Z,4.93
2023-01-10T07:11:36.081Z,4.93
2023-01-10T07:14:03.811Z,5.06
2023-01-10T07:16:31.655Z,5.28
2023-01-10T07:19:00.910Z,5.41
2023-01-10T07:21:29.579Z,5.59
2023-01-10T07:23:57.373Z,5.54
2023-01-10T07:26:25.115Z,5.69
2023-01-10T07:28:52.968Z,5.59
2023-01-10T07:31:23.694Z,5.57
2023-01-10T07:33:52.760Z,5.61
2023-01-10T07:36:22.342Z,5.55
2023-01-10T07:38:50.103Z,5.66
2023-01-10T07:41:17.849Z,5.63
2023-01-10T07:43:46.149Z,5.70
2023-01-10T07:46:14.466Z,5.91
2023-01-10T07:48:42.638Z,6.00
2023-01-10T07:51:11.042Z,5.83
2023-01-10T07:53:40.510Z,5.82
2023-01-10T07:56:08.759Z,5.72
2023-01-10T07:58:37.225Z,5.68
2023-01-10T08:01:06.804Z,5.73
2023-01-10T08:03:35.502Z,5.73
2023-01-10T08:06:05.905Z,5.73
2023-01-10T08:08:34.676Z,5.77
2023-01-10T08:11:04.170Z,5.90
2023-01-10T08:13:32.727Z,5.87
2023-01-10T08:16:00.599Z,5.87
2023-01-10T08:18:28.493Z,5.94
2023-01-10T08:20:57.041Z,5.87
2023-01-10T08:23:24.968Z,5.87
2023-01-10T08:25:52.854Z,5.90
2023-01-10T08:28:22.061Z,5.88
2023-01-10T08:30:50.690Z,5.97
2023-01-10T08:33:18.723Z,6.07
2023-01-10T08:35:46.428Z,6.07
2023-01-10T08:38:14.264Z,6.09
2023-01-10T08:40:42.115Z,6.08
2023-01-10T08:43:12.919Z,6.15
2023-01-10T08:45:42.574Z,6.07
2023-01-10T08:48:11.158Z,6.06
2023-01-10T08:50:39.039Z,6.04
2023-01-10T08:53:07.167Z,6.01
2023-01-10T08:55:36.161Z,6.13
2023-01-10T08:58:03.912Z,6.13
2023-01-10T09:00:32.498Z,6.14
2023-01-10T09:03:01.791Z,6.14
2023-01-10T09:05:29.606Z,6.20
2023-01-10T09:08:00.909Z,6.12
2023-01-10T09:10:28.874Z,6.09
2023-01-10T09:12:59.779Z,6.25
2023-01-10T09:15:30.925Z,6.11
2023-01-10T09:18:01.433Z,6.11
2023-01-10T09:20:30.578Z,6.07
2023-01-10T09:22:59.644Z,6.06
2023-01-10T09:25:27.544Z,6.10
2023-01-10T09:27:59.016Z,6.13
2023-01-10T09:30:27.270Z,6.42
2023-01-10T09:32:56.535Z,6.31
2023-01-10T09:35:27.028Z,6.28
2023-01-10T09:37:56.013Z,6.50
2023-01-10T09:40:34.459Z,6.61
2023-01-10T09:43:11.506Z,6.71
2023-01-10T09:45:44.020Z,6.73
2023-01-10T09:48:21.701Z,6.92
2023-01-10T09:51:06.963Z,6.73
2023-01-10T09:53:38.251Z,6.52
2023-01-10T09:56:08.499Z,6.49
2023-01-10T09:58:39.472Z,6.39
2023-01-10T10:01:11.963Z,6.40
2023-01-10T10:03:46.891Z,6.47
2023-01-10T10:06:16.257Z,6.61
2023-01-10T10:08:46.694Z,6.85
2023-01-10T10:11:40.868Z,6.89
2023-01-10T10:14:18.301Z,6.89
2023-01-10T10:17:01.183Z,6.93
2023-01-10T10:19:42.591Z,6.93
2023-01-10T10:22:19.891Z,6.97
2023-01-10T10:24:58.186Z,7.01
2023-01-10T10:27:36.342Z,6.86
2023-01-10T10:30:22.087Z,6.95
2023-01-10T10:33:14.918Z,6.92
2023-01-10T10:35:46.358Z,6.85
2023-01-10T10:38:22.146Z,6.79
2023-01-10T10:40:51.238Z,6.72
2023-01-10T10:43:21.561Z,6.58
2023-01-10T10:45:53.970Z,6.55
2023-01-10T10:48:26.139Z,6.50
2023-01-10T10:51:04.396Z,6.51
2023-01-10T10:53:35.347Z,6.52
2023-01-10T10:56:05.560Z,6.51
2023-01-10T10:58:33.964Z,6.48
2023-01-10T11:01:02.190Z,6.62
2023-01-10T11:03:38.577Z,6.69
2023-01-10T11:06:08.214Z,6.88
2023-01-10T11:08:41.335Z,7.01
2023-01-10T11:11:19.693Z,7.19
2023-01-10T11:13:49.875Z,7.20
2023-01-10T11:16:26.850Z,7.33
2023-01-10T11:19:19.696Z,7.45
2023-01-10T11:21:50.538Z,7.74
2023-01-10T11:24:28.185Z,7.84
2023-01-10T11:26:57.680Z,7.97
2023-01-10T11:29:27.759Z,8.13
2023-01-10T11:31:57.658Z,7.86
2023-01-10T11:34:29.956Z,7.82
2023-01-10T11:37:01.125Z,7.81
2023-01-10T11:39:32.350Z,8.05
2023-01-10T11:42:29.605Z,7.54
2023-01-10T11:45:14.324Z,7.40
2023-01-10T11:47:45.638Z,7.31
2023-01-10T11:50:20.427Z,7.37
2023-01-10T11:52:49.818Z,7.22
2023-01-10T11:55:22.164Z,7.20
2023-01-10T11:57:59.904Z,7.35
2023-01-10T12:00:42.179Z,7.22
2023-01-10T12:03:24.781Z,7.42
2023-01-10T12:05:54.522Z,7.56
2023-01-10T12:08:29.920Z,7.81
2023-01-10T12:11:02.985Z,7.96
2023-01-10T12:13:32.191Z,7.76
2023-01-10T12:16:17.386Z,7.85
2023-01-10T12:18:45.784Z,7.82
2023-01-10T12:21:17.288Z,7.79
2023-01-10T12:23:47.483Z,7.86
2023-01-10T12:26:17.553Z,7.77
2023-01-10T12:28:52.028Z,7.81
2023-01-10T12:31:22.683Z,8.02
2023-01-10T12:33:56.674Z,8.03
2023-01-10T12:36:35.613Z,7.92
2023-01-10T12:39:14.360Z,7.85
2023-01-10T12:42:09.956Z,7.68
2023-01-10T12:44:42.145Z,7.65
2023-01-10T12:47:20.723Z,7.93
2023-01-10T12:49:55.679Z,7.92
2023-01-10T12:52:32.772Z,7.78
2023-01-10T12:55:03.050Z,7.56
2023-01-10T12:57:37.027Z,7.51
2023-01-10T13:00:09.012Z,7.64
2023-01-10T13:02:43.991Z,7.74
2023-01-10T13:05:19.786Z,7.71
2023-01-10T13:07:48.849Z,7.76
2023-01-10T13:10:20.808Z,7.64
2023-01-10T13:12:56.460Z,7.57
2023-01-10T13:15:27.666Z,7.51
2023-01-10T13:17:59.692Z,7.42
2023-01-10T13:20:38.562Z,7.55
2023-01-10T13:23:23.836Z,7.55
2023-01-10T13:25:56.993Z,7.66
2023-01-10T13:28:28.517Z,7.54
2023-01-10T13:30:59.796Z,7.59
2023-01-10T13:33:29.908Z,7.67
2023-01-10T13:36:00.365Z,7.62
2023-01-10T13:38:37.028Z,7.68
2023-01-10T13:41:07.975Z,7.68
2023-01-10T13:43:59.612Z,7.52
2023-01-10T13:46:52.828Z,7.59
2023-01-10T13:49:47.482Z,7.58
2023-01-10T13:52:32.750Z,7.57
2023-01-10T13:55:03.770Z,7.60
2023-01-10T13:57:51.798Z,7.53
2023-01-10T14:01:12.560Z,7.60
2023-01-10T14:03:44.876Z,7.82
2023-01-10T14:06:17.734Z,7.73
2023-01-10T14:08:52.127Z,7.61
2023-01-10T14:11:21.998Z,7.65
2023-01-10T14:13:54.384Z,7.60
2023-01-10T14:16:31.991Z,7.52
2023-01-10T14:19:01.922Z,7.51
2023-01-10T14:21:31.526Z,7.43
2023-01-10T14:23:59.648Z,7.36
2023-01-10T14:26:33.520Z,7.48
2023-01-10T14:29:03.462Z,7.44
2023-01-10T14:31:31.913Z,7.46
2023-01-10T14:34:03.175Z,7.29
2023-01-10T14:36:35.180Z,7.33
2023-01-10T14:39:06.715Z,7.34
2023-01-10T14:41:38.052Z,7.51
2023-01-10T14:44:12.084Z,7.20
2023-01-10T14:46:46.825Z,7.48
2023-01-10T14:49:24.579Z,7.39
2023-01-10T14:51:52.844Z,7.31
2023-01-10T14:54:23.415Z,7.24
2023-01-10T14:56:52.693Z,7.31
2023-01-10T14:59:25.223Z,7.23
2023-01-10T15:01:55.145Z,7.15
2023-01-10T15:04:27.812Z,7.20
2023-01-10T15:06:58.242Z,7.09
2023-01-10T15:09:26.137Z,7.01
2023-01-10T15:11:55.706Z,6.92
2023-01-10T15:14:26.929Z,7.09
2023-01-10T15:17:00.010Z,7.12
2023-01-10T15:19:31.987Z,7.23
2023-01-10T15:21:59.905Z,7.14
2023-01-10T15:24:33.419Z,7.15
2023-01-10T15:27:04.126Z,7.03
2023-01-10T15:29:33.025Z,7.07
2023-01-10T15:32:09.814Z,7.11
2023-01-10T15:34:40.017Z,7.02
2023-01-10T15:37:18.214Z,6.98
2023-01-10T15:39:48.208Z,6.98
2023-01-10T15:42:16.241Z,7.00
2023-01-10T15:44:45.935Z,7.10
2023-01-10T15:47:40.427Z,7.26
2023-01-10T15:50:22.299Z,7.10
2023-01-10T15:52:51.208Z,6.97
2023-01-10T15:55:38.180Z,6.94
2023-01-10T15:58:06.900Z,6.92
2023-01-10T16:00:35.036Z,6.91
2023-01-10T16:03:02.960Z,6.76
2023-01-10T16:05:32.236Z,6.87
2023-01-10T16:08:00.011Z,6.72
2023-01-10T16:10:29.656Z,6.67
2023-01-10T16:13:28.152Z,6.61
2023-01-10T16:15:57.227Z,6.67
2023-01-10T16:18:26.573Z,6.54
2023-01-10T16:20:58.329Z,6.75
2023-01-10T16:23:29.619Z,6.70
2023-01-10T16:26:00.134Z,6.67
2023-01-10T16:28:32.965Z,6.75
2023-01-10T16:31:00.822Z,6.64
2023-01-10T16:33:29.060Z,6.57
2023-01-10T16:36:00.404Z,6.57
2023-01-10T16:38:29.606Z,6.64
2023-01-10T16:40:59.830Z,6.71
2023-01-10T16:43:29.113Z,6.65
2023-01-10T16:46:00.200Z,6.73
2023-01-10T16:48:29.629Z,6.63
2023-01-10T16:51:06.748Z,6.56
2023-01-10T16:53:34.465Z,6.59
2023-01-10T16:56:02.166Z,6.75
2023-01-10T16:58:29.908Z,6.63
2023-01-10T17:00:59.428Z,6.68
2023-01-10T17:03:27.841Z,6.62
2023-01-10T17:05:55.745Z,6.53
2023-01-10T17:08:25.707Z,6.66
2023-01-10T17:10:56.551Z,6.64
2023-01-10T17:13:27.327Z,6.64
2023-01-10T17:15:55.140Z,6.51
2023-01-10T17:18:24.800Z,6.52
2023-01-10T17:20:53.266Z,6.63
2023-01-10T17:23:21.104Z,6.65
2023-01-10T17:25:50.941Z,6.73
2023-01-10T17:28:19.391Z,6.93
2023-01-10T17:30:47.144Z,6.76
2023-01-10T17:33:14.986Z,6.72
2023-01-10T17:35:43.817Z,6.80
2023-01-10T17:38:12.439Z,6.90
2023-01-10T17:40:41.702Z,6.87
2023-01-10T17:43:11.438Z,6.98
2023-01-10T17:45:40.827Z,6.88
2023-01-10T17:48:08.985Z,6.68
2023-01-10T17:50:37.345Z,6.67
2023-01-10T17:53:05.386Z,6.80
2023-01-10T17:55:33.580Z,7.14
2023-01-10T17:58:02.730Z,6.99
2023-01-10T18:00:32.226Z,7.00
2023-01-10T18:02:59.967Z,6.92
2023-01-10T18:05:27.787Z,7.05
2023-01-10T18:07:55.971Z,7.14
2023-01-10T18:10:23.735Z,6.95
2023-01-10T18:12:51.411Z,6.97
2023-01-10T18:15:19.315Z,6.89
2023-01-10T18:17:48.587Z,6.88
2023-01-10T18:20:16.531Z,6.99
2023-01-10T18:23:16.442Z,6.81
2023-01-10T18:25:44.181Z,6.91
2023-01-10T18:28:12.149Z,6.87
2023-01-10T18:30:40.370Z,6.94
2023-01-10T18:33:09.528Z,6.87
2023-01-10T18:35:38.984Z,6.84
2023-01-10T18:38:07.084Z,7.07
2023-01-10T18:40:34.943Z,7.11
2023-01-10T18:43:02.682Z,7.37
2023-01-10T18:45:31.469Z,7.16
2023-01-10T18:47:59.509Z,7.10
2023-01-10T18:50:28.625Z,6.97
2023-01-10T18:52:56.360Z,6.78
2023-01-10T18:55:24.158Z,6.95
2023-01-10T18:57:51.893Z,6.63
2023-01-10T19:00:20.663Z,6.60
2023-01-10T19:02:48.486Z,6.66
2023-01-10T19:05:16.214Z,6.67
2023-01-10T19:07:45.512Z,6.57
2023-01-10T19:10:13.752Z,6.76
2023-01-10T19:12:42.356Z,6.61
2023-01-10T19:15:11.191Z,6.75
2023-01-10T19:17:39.302Z,6.72
2023-01-10T19:20:09.078Z,6.55
2023-01-10T19:22:36.896Z,6.59
2023-01-10T19:25:06.995Z,6.40
2023-01-10T19:27:34.824Z,6.44
2023-01-10T19:30:02.932Z,6.32
2023-01-10T19:32:30.716Z,6.22
2023-01-10T19:34:58.547Z,6.23
2023-01-10T19:37:26.347Z,6.06
2023-01-10T19:39:54.209Z,5.96
2023-01-10T19:42:25.877Z,5.97
2023-01-10T19:44:53.824Z,5.89
2023-01-10T19:47:21.623Z,5.90
2023-01-10T19:49:49.548Z,5.92
2023-01-10T19:52:17.289Z,5.95
2023-01-10T19:54:45.002Z,6.14
2023-01-10T19:57:12.961Z,6.09
2023-01-10T19:59:42.727Z,6.02
2023-01-10T20:02:13.395Z,5.98
2023-01-10T20:04:41.117Z,6.09
2023-01-10T20:07:08.788Z,6.18
2023-01-10T20:09:36.579Z,6.24
2023-01-10T20:12:04.609Z,6.28
2023-01-10T20:14:32.413Z,6.43
2023-01-10T20:17:02.276Z,6.35
2023-01-10T20:19:30.057Z,6.62
2023-01-10T20:21:57.817Z,6.42
2023-01-10T20:24:25.595Z,6.31
2023-01-10T20:26:53.515Z,6.81
2023-01-10T20:29:21.380Z,6.87
2023-01-10T20:31:52.946Z,6.53
2023-01-10T20:34:22.776Z,6.50
2023-01-10T20:36:52.600Z,6.69
2023-01-10T20:39:20.409Z,6.70
2023-01-10T20:41:49.803Z,6.63
2023-01-10T20:44:17.544Z,6.60
2023-01-10T20:46:45.640Z,6.65
2023-01-10T20:49:13.503Z,6.70
2023-01-10T20:51:42.644Z,6.67
2023-01-10T20:54:11.285Z,6.65
2023-01-10T20:56:39.758Z,6.63
2023-01-10T20:59:08.016Z,6.71
2023-01-10T21:01:36.104Z,6.82
2023-01-10T21:04:05.779Z,6.83
2023-01-10T21:06:34.768Z,6.81
2023-01-10T21:09:04.556Z,6.80
2023-01-10T21:11:38.753Z,6.76
2023-01-10T21:14:15.288Z,6.82
2023-01-10T21:16:42.995Z,6.84
2023-01-10T21:19:13.635Z,6.80
2023-01-10T21:21:42.241Z,6.79
2023-01-10T21:24:11.947Z,6.84
2023-01-10T21:26:39.794Z,7.04
2023-01-10T21:29:07.917Z,7.01
2023-01-10T21:31:35.624Z,6.74
2023-01-10T21:34:03.315Z,6.67
2023-01-10T21:36:30.971Z,6.78
2023-01-10T21:38:58.715Z,6.94
2023-01-10T21:41:45.230Z,6.78
2023-01-10T21:44:12.985Z,7.05
2023-01-10T21:46:41.158Z,6.80
2023-01-10T21:49:08.943Z,6.88
2023-01-10T21:51:36.779Z,7.00
2023-01-10T21:54:04.780Z,6.83
2023-01-10T21:56:33.977Z,6.84
2023-01-10T21:59:01.769Z,6.80
2023-01-10T22:01:29.864Z,6.79
2023-01-10T22:03:57.772Z,6.76
2023-01-10T22:06:25.556Z,6.56
2023-01-10T22:08:54.447Z,6.54
2023-01-10T22:11:22.571Z,6.59
2023-01-10T22:13:52.622Z,6.66
2023-01-10T22:16:20.466Z,6.38
2023-01-10T22:18:49.037Z,6.37
2023-01-10T22:21:17.350Z,6.78
2023-01-10T22:23:45.955Z,6.73
2023-01-10T22:26:15.237Z,6.47
2023-01-10T22:28:43.483Z,6.42
2023-01-10T22:31:13.056Z,6.43
2023-01-10T22:33:41.063Z,6.48
2023-01-10T22:36:13.640Z,6.50
2023-01-10T22:38:41.600Z,6.46
2023-01-10T22:41:12.805Z,6.49
2023-01-10T22:43:41.037Z,6.56
2023-01-10T22:46:09.638Z,6.60
2023-01-10T22:48:39.631Z,6.66
2023-01-10T22:51:08.107Z,6.52
2023-01-10T22:53:36.648Z,6.44
2023-01-10T22:56:06.417Z,6.51
2023-01-10T22:58:34.700Z,6.60
2023-01-10T23:01:04.512Z,6.52
2023-01-10T23:03:32.336Z,6.58
2023-01-10T23:06:01.767Z,6.45
2023-01-10T23:08:29.568Z,6.56
2023-01-10T23:10:57.392Z,6.48
2023-01-10T23:13:25.751Z,6.49
2023-01-10T23:15:57.624Z,6.46
2023-01-10T23:18:25.350Z,6.52
2023-01-10T23:20:53.220Z,6.53
2023-01-10T23:23:23.070Z,6.59
2023-01-10T23:26:01.482Z,6.46
2023-01-10T23:28:29.899Z,6.60
2023-01-10T23:30:58.090Z,6.51
2023-01-10T23:33:26.221Z,6.62
2023-01-10T23:35:54.076Z,6.56
2023-01-10T23:38:23.082Z,6.71
2023-01-10T23:40:50.898Z,6.73
2023-01-10T23:43:18.714Z,6.59
2023-01-10T23:45:46.775Z,6.81
2023-01-10T23:48:14.543Z,6.51
2023-01-10T23:50:42.384Z,6.69
2023-01-10T23:53:10.364Z,6.74
2023-01-10T23:55:39.396Z,6.76
2023-01-10T23:58:07.488Z,6.67
